sensor_id;sensor_type;location;lat;lon;timestamp;P1;durP1;ratioP1;P2;durP2;ratioP2
25657;SDS011;13517;59.320;18.042;2023-08-01T00:01:00;14.07;;;6.65;;
25657;SDS011;13517;59.320;18.042;2023-08-01T00:03:25;17.15;;;6.55;;
25657;SDS011;13517;59.320;18.042;2023-08-01T00:05:51;21.60;;;6.55;;
25657;SDS011;13517;59.320;18.042;2023-08-01T00:08:16;11.60;;;5.78;;
25657;SDS011;13517;59.320;18.042;2023-08-01T00:10:42;16.08;;;6.40;;
25657;SDS011;13517;59.320;18.042;2023-08-01T00:13:07;19.85;;;7.13;;
25657;SDS011;13517;59.320;18.042;2023-08-01T00:15:34;14.43;;;6.57;;
25657;SDS011;13517;59.320;18.042;2023-08-01T00:18:01;16.40;;;6.95;;
25657;SDS011;13517;59.320;18.042;2023-08-01T00:20:26;18.27;;;7.90;;
25657;SDS011;13517;59.320;18.042;2023-08-01T00:22:52;19.90;;;7.50;;
25657;SDS011;13517;59.320;18.042;2023-08-01T00:25:17;15.68;;;7.22;;
25657;SDS011;13517;59.320;18.042;2023-08-01T00:27:43;14.30;;;6.60;;
25657;SDS011;13517;59.320;18.042;2023-08-01T00:30:09;17.45;;;6.40;;
25657;SDS011;13517;59.320;18.042;2023-08-01T00:32:35;20.10;;;7.63;;
25657;SDS011;13517;59.320;18.042;2023-08-01T00:35:01;14.13;;;7.20;;
25657;SDS011;13517;59.320;18.042;2023-08-01T00:37:26;23.98;;;7.55;;
25657;SDS011;13517;59.320;18.042;2023-08-01T00:39:52;12.70;;;6.68;;
25657;SDS011;13517;59.320;18.042;2023-08-01T00:42:17;14.52;;;6.57;;
25657;SDS011;13517;59.320;18.042;2023-08-01T00:44:43;13.93;;;7.38;;
25657;SDS011;13517;59.320;18.042;2023-08-01T00:47:08;19.48;;;7.28;;
25657;SDS011;13517;59.320;18.042;2023-08-01T00:49:35;12.65;;;6.97;;
25657;SDS011;13517;59.320;18.042;2023-08-01T00:52:00;14.80;;;7.20;;
25657;SDS011;13517;59.320;18.042;2023-08-01T00:54:26;16.60;;;7.05;;
25657;SDS011;13517;59.320;18.042;2023-08-01T00:56:52;16.20;;;6.78;;
25657;SDS011;13517;59.320;18.042;2023-08-01T00:59:18;14.60;;;6.68;;
25657;SDS011;13517;59.320;18.042;2023-08-01T01:01:43;16.92;;;6.95;;
25657;SDS011;13517;59.320;18.042;2023-08-01T01:04:09;14.63;;;7.15;;
25657;SDS011;13517;59.320;18.042;2023-08-01T01:06:36;13.95;;;6.78;;
25657;SDS011;13517;59.320;18.042;2023-08-01T01:09:15;17.65;;;6.68;;
25657;SDS011;13517;59.320;18.042;2023-08-01T01:11:41;12.23;;;5.63;;
25657;SDS011;13517;59.320;18.042;2023-08-01T01:14:07;18.92;;;7.47;;
25657;SDS011;13517;59.320;18.042;2023-08-01T01:16:34;14.70;;;5.63;;
25657;SDS011;13517;59.320;18.042;2023-08-01T01:18:59;17.02;;;6.30;;
25657;SDS011;13517;59.320;18.042;2023-08-01T01:21:24;19.55;;;6.47;;
25657;SDS011;13517;59.320;18.042;2023-08-01T01:23:50;13.25;;;5.50;;
25657;SDS011;13517;59.320;18.042;2023-08-01T01:26:16;11.55;;;4.82;;
25657;SDS011;13517;59.320;18.042;2023-08-01T01:28:46;13.00;;;5.82;;
25657;SDS011;13517;59.320;18.042;2023-08-01T01:31:13;11.50;;;5.20;;
25657;SDS011;13517;59.320;18.042;2023-08-01T01:33:40;9.07;;;4.88;;
25657;SDS011;13517;59.320;18.042;2023-08-01T01:36:06;14.07;;;5.25;;
25657;SDS011;13517;59.320;18.042;2023-08-01T01:38:31;12.00;;;4.53;;
25657;SDS011;13517;59.320;18.042;2023-08-01T01:40:57;19.30;;;5.82;;
25657;SDS011;13517;59.320;18.042;2023-08-01T01:43:22;9.27;;;4.28;;
25657;SDS011;13517;59.320;18.042;2023-08-01T01:45:47;14.43;;;4.90;;
25657;SDS011;13517;59.320;18.042;2023-08-01T01:48:13;10.93;;;4.30;;
25657;SDS011;13517;59.320;18.042;2023-08-01T01:50:38;11.23;;;4.18;;
25657;SDS011;13517;59.320;18.042;2023-08-01T01:53:04;7.65;;;3.65;;
25657;SDS011;13517;59.320;18.042;2023-08-01T01:55:29;7.10;;;3.72;;
25657;SDS011;13517;59.320;18.042;2023-08-01T01:57:54;11.02;;;3.28;;
25657;SDS011;13517;59.320;18.042;2023-08-01T02:00:20;9.63;;;3.50;;
25657;SDS011;13517;59.320;18.042;2023-08-01T02:02:45;10.30;;;3.90;;
25657;SDS011;13517;59.320;18.042;2023-08-01T02:05:10;5.68;;;3.28;;
25657;SDS011;13517;59.320;18.042;2023-08-01T02:07:36;8.90;;;3.50;;
25657;SDS011;13517;59.320;18.042;2023-08-01T02:10:02;6.22;;;3.13;;
25657;SDS011;13517;59.320;18.042;2023-08-01T02:12:27;5.60;;;3.38;;
25657;SDS011;13517;59.320;18.042;2023-08-01T02:14:56;9.00;;;3.45;;
25657;SDS011;13517;59.320;18.042;2023-08-01T02:17:22;7.55;;;3.55;;
25657;SDS011;13517;59.320;18.042;2023-08-01T02:19:47;12.07;;;4.03;;
25657;SDS011;13517;59.320;18.042;2023-08-01T02:22:13;9.40;;;3.67;;
25657;SDS011;13517;59.320;18.042;2023-08-01T02:24:38;10.40;;;3.53;;
25657;SDS011;13517;59.320;18.042;2023-08-01T02:27:04;9.20;;;3.30;;
25657;SDS011;13517;59.320;18.042;2023-08-01T02:29:29;7.07;;;3.75;;
25657;SDS011;13517;59.320;18.042;2023-08-01T02:31:55;9.43;;;3.60;;
25657;SDS011;13517;59.320;18.042;2023-08-01T02:34:21;10.73;;;3.17;;
25657;SDS011;13517;59.320;18.042;2023-08-01T02:36:46;8.23;;;3.42;;
25657;SDS011;13517;59.320;18.042;2023-08-01T02:39:12;9.23;;;4.35;;
25657;SDS011;13517;59.320;18.042;2023-08-01T02:41:37;13.00;;;3.70;;
25657;SDS011;13517;59.320;18.042;2023-08-01T02:44:02;7.80;;;3.85;;
25657;SDS011;13517;59.320;18.042;2023-08-01T02:46:28;7.55;;;3.92;;
25657;SDS011;13517;59.320;18.042;2023-08-01T02:48:54;12.05;;;3.80;;
25657;SDS011;13517;59.320;18.042;2023-08-01T02:51:20;7.63;;;3.75;;
25657;SDS011;13517;59.320;18.042;2023-08-01T02:53:45;11.25;;;3.92;;
25657;SDS011;13517;59.320;18.042;2023-08-01T02:56:11;8.38;;;3.78;;
25657;SDS011;13517;59.320;18.042;2023-08-01T02:58:36;11.18;;;4.70;;
25657;SDS011;13517;59.320;18.042;2023-08-01T03:01:08;11.13;;;4.03;;
25657;SDS011;13517;59.320;18.042;2023-08-01T03:03:35;8.80;;;3.60;;
25657;SDS011;13517;59.320;18.042;2023-08-01T03:06:01;9.98;;;4.25;;
25657;SDS011;13517;59.320;18.042;2023-08-01T03:08:27;12.80;;;4.65;;
25657;SDS011;13517;59.320;18.042;2023-08-01T03:10:53;8.70;;;4.10;;
25657;SDS011;13517;59.320;18.042;2023-08-01T03:13:19;11.25;;;4.32;;
25657;SDS011;13517;59.320;18.042;2023-08-01T03:15:45;8.95;;;3.53;;
25657;SDS011;13517;59.320;18.042;2023-08-01T03:18:10;9.38;;;4.03;;
25657;SDS011;13517;59.320;18.042;2023-08-01T03:20:35;10.55;;;3.78;;
25657;SDS011;13517;59.320;18.042;2023-08-01T03:23:01;10.10;;;3.80;;
25657;SDS011;13517;59.320;18.042;2023-08-01T03:25:27;7.15;;;3.28;;
25657;SDS011;13517;59.320;18.042;2023-08-01T03:27:52;10.25;;;3.70;;
25657;SDS011;13517;59.320;18.042;2023-08-01T03:30:19;6.68;;;3.25;;
25657;SDS011;13517;59.320;18.042;2023-08-01T03:32:46;11.05;;;4.20;;
25657;SDS011;13517;59.320;18.042;2023-08-01T03:35:11;8.10;;;3.60;;
25657;SDS011;13517;59.320;18.042;2023-08-01T03:37:39;9.85;;;4.88;;
25657;SDS011;13517;59.320;18.042;2023-08-01T03:40:05;8.35;;;4.35;;
25657;SDS011;13517;59.320;18.042;2023-08-01T03:42:33;11.05;;;4.00;;
25657;SDS011;13517;59.320;18.042;2023-08-01T03:44:59;8.02;;;4.00;;
25657;SDS011;13517;59.320;18.042;2023-08-01T03:47:25;11.90;;;4.82;;
25657;SDS011;13517;59.320;18.042;2023-08-01T03:49:50;12.68;;;4.28;;
25657;SDS011;13517;59.320;18.042;2023-08-01T03:52:15;7.93;;;4.30;;
25657;SDS011;13517;59.320;18.042;2023-08-01T03:54:41;12.40;;;4.75;;
25657;SDS011;13517;59.320;18.042;2023-08-01T03:57:06;10.90;;;4.15;;
25657;SDS011;13517;59.320;18.042;2023-08-01T03:59:32;8.45;;;4.15;;
25657;SDS011;13517;59.320;18.042;2023-08-01T04:01:57;12.43;;;4.30;;
25657;SDS011;13517;59.320;18.042;2023-08-01T04:04:22;10.68;;;4.40;;
25657;SDS011;13517;59.320;18.042;2023-08-01T04:06:48;13.93;;;4.40;;
25657;SDS011;13517;59.320;18.042;2023-08-01T04:09:13;12.32;;;4.35;;
25657;SDS011;13517;59.320;18.042;2023-08-01T04:11:39;9.55;;;4.60;;
25657;SDS011;13517;59.320;18.042;2023-08-01T04:14:04;14.52;;;5.15;;
25657;SDS011;13517;59.320;18.042;2023-08-01T04:16:29;9.75;;;4.05;;
25657;SDS011;13517;59.320;18.042;2023-08-01T04:18:55;10.40;;;4.00;;
25657;SDS011;13517;59.320;18.042;2023-08-01T04:21:21;11.52;;;4.40;;
25657;SDS011;13517;59.320;18.042;2023-08-01T04:23:46;10.85;;;4.07;;
25657;SDS011;13517;59.320;18.042;2023-08-01T04:26:12;16.85;;;4.68;;
25657;SDS011;13517;59.320;18.042;2023-08-01T04:28:37;29.10;;;4.65;;
25657;SDS011;13517;59.320;18.042;2023-08-01T04:31:03;5.10;;;3.45;;
25657;SDS011;13517;59.320;18.042;2023-08-01T04:33:28;9.13;;;3.88;;
25657;SDS011;13517;59.320;18.042;2023-08-01T04:35:54;9.48;;;3.60;;
25657;SDS011;13517;59.320;18.042;2023-08-01T04:38:19;6.45;;;3.70;;
25657;SDS011;13517;59.320;18.042;2023-08-01T04:40:45;7.22;;;3.97;;
25657;SDS011;13517;59.320;18.042;2023-08-01T04:43:11;10.00;;;4.30;;
25657;SDS011;13517;59.320;18.042;2023-08-01T04:45:37;9.25;;;4.38;;
25657;SDS011;13517;59.320;18.042;2023-08-01T04:48:02;8.85;;;3.97;;
25657;SDS011;13517;59.320;18.042;2023-08-01T04:50:28;11.25;;;4.20;;
25657;SDS011;13517;59.320;18.042;2023-08-01T04:52:53;13.35;;;4.70;;
25657;SDS011;13517;59.320;18.042;2023-08-01T04:55:18;12.70;;;3.85;;
25657;SDS011;13517;59.320;18.042;2023-08-01T04:57:44;14.02;;;4.47;;
25657;SDS011;13517;59.320;18.042;2023-08-01T05:00:09;8.18;;;4.05;;
25657;SDS011;13517;59.320;18.042;2023-08-01T05:02:35;10.30;;;4.20;;
25657;SDS011;13517;59.320;18.042;2023-08-01T05:05:01;10.93;;;4.20;;
25657;SDS011;13517;59.320;18.042;2023-08-01T05:07:26;6.95;;;4.22;;
25657;SDS011;13517;59.320;18.042;2023-08-01T05:09:52;9.23;;;4.57;;
25657;SDS011;13517;59.320;18.042;2023-08-01T05:12:17;8.85;;;3.80;;
25657;SDS011;13517;59.320;18.042;2023-08-01T05:14:42;13.07;;;3.72;;
25657;SDS011;13517;59.320;18.042;2023-08-01T05:17:08;14.32;;;4.10;;
25657;SDS011;13517;59.320;18.042;2023-08-01T05:19:33;9.80;;;4.35;;
25657;SDS011;13517;59.320;18.042;2023-08-01T05:21:58;10.45;;;4.10;;
25657;SDS011;13517;59.320;18.042;2023-08-01T05:24:24;6.82;;;3.50;;
25657;SDS011;13517;59.320;18.042;2023-08-01T05:26:49;9.70;;;4.13;;
25657;SDS011;13517;59.320;18.042;2023-08-01T05:29:15;8.65;;;3.75;;
25657;SDS011;13517;59.320;18.042;2023-08-01T05:31:40;12.45;;;3.72;;
25657;SDS011;13517;59.320;18.042;2023-08-01T05:34:06;8.10;;;3.55;;
25657;SDS011;13517;59.320;18.042;2023-08-01T05:36:31;12.98;;;3.60;;
25657;SDS011;13517;59.320;18.042;2023-08-01T05:38:56;9.95;;;3.90;;
25657;SDS011;13517;59.320;18.042;2023-08-01T05:41:22;11.43;;;3.88;;
25657;SDS011;13517;59.320;18.042;2023-08-01T05:43:48;8.98;;;3.72;;
25657;SDS011;13517;59.320;18.042;2023-08-01T05:46:15;9.40;;;3.22;;
25657;SDS011;13517;59.320;18.042;2023-08-01T05:48:41;8.57;;;3.95;;
25657;SDS011;13517;59.320;18.042;2023-08-01T05:51:06;11.65;;;3.83;;
25657;SDS011;13517;59.320;18.042;2023-08-01T05:53:32;9.88;;;3.88;;
25657;SDS011;13517;59.320;18.042;2023-08-01T05:55:57;11.07;;;3.08;;
25657;SDS011;13517;59.320;18.042;2023-08-01T05:58:23;11.02;;;3.47;;
25657;SDS011;13517;59.320;18.042;2023-08-01T06:00:48;11.13;;;3.42;;
25657;SDS011;13517;59.320;18.042;2023-08-01T06:03:14;34.63;;;5.78;;
25657;SDS011;13517;59.320;18.042;2023-08-01T06:05:39;21.30;;;4.00;;
25657;SDS011;13517;59.320;18.042;2023-08-01T06:08:08;22.40;;;4.35;;
25657;SDS011;13517;59.320;18.042;2023-08-01T06:10:34;11.60;;;3.88;;
25657;SDS011;13517;59.320;18.042;2023-08-01T06:13:00;18.88;;;4.00;;
25657;SDS011;13517;59.320;18.042;2023-08-01T06:15:26;7.47;;;3.15;;
25657;SDS011;13517;59.320;18.042;2023-08-01T06:17:52;5.45;;;2.80;;
25657;SDS011;13517;59.320;18.042;2023-08-01T06:20:18;12.70;;;3.25;;
25657;SDS011;13517;59.320;18.042;2023-08-01T06:22:44;9.88;;;3.67;;
25657;SDS011;13517;59.320;18.042;2023-08-01T06:25:09;7.53;;;3.08;;
25657;SDS011;13517;59.320;18.042;2023-08-01T06:27:35;9.35;;;2.60;;
25657;SDS011;13517;59.320;18.042;2023-08-01T06:30:00;6.90;;;2.67;;
25657;SDS011;13517;59.320;18.042;2023-08-01T06:32:26;9.30;;;3.13;;
25657;SDS011;13517;59.320;18.042;2023-08-01T06:34:51;6.93;;;2.97;;
25657;SDS011;13517;59.320;18.042;2023-08-01T06:37:17;7.30;;;3.08;;
25657;SDS011;13517;59.320;18.042;2023-08-01T06:39:42;7.30;;;2.75;;
25657;SDS011;13517;59.320;18.042;2023-08-01T06:42:08;7.72;;;2.50;;
25657;SDS011;13517;59.320;18.042;2023-08-01T06:44:33;8.18;;;2.75;;
25657;SDS011;13517;59.320;18.042;2023-08-01T06:46:59;6.07;;;2.50;;
25657;SDS011;13517;59.320;18.042;2023-08-01T06:49:24;11.85;;;3.25;;
25657;SDS011;13517;59.320;18.042;2023-08-01T06:51:49;10.68;;;2.58;;
25657;SDS011;13517;59.320;18.042;2023-08-01T06:54:15;5.85;;;2.83;;
25657;SDS011;13517;59.320;18.042;2023-08-01T06:56:41;10.85;;;2.70;;
25657;SDS011;13517;59.320;18.042;2023-08-01T06:59:12;9.80;;;3.17;;
25657;SDS011;13517;59.320;18.042;2023-08-01T07:01:41;10.02;;;2.28;;
25657;SDS011;13517;59.320;18.042;2023-08-01T07:04:08;8.13;;;2.90;;
25657;SDS011;13517;59.320;18.042;2023-08-01T07:06:34;9.70;;;2.78;;
25657;SDS011;13517;59.320;18.042;2023-08-01T07:09:00;8.75;;;2.53;;
25657;SDS011;13517;59.320;18.042;2023-08-01T07:11:25;8.70;;;2.90;;
25657;SDS011;13517;59.320;18.042;2023-08-01T07:13:51;10.13;;;2.90;;
25657;SDS011;13517;59.320;18.042;2023-08-01T07:16:16;4.50;;;2.13;;
25657;SDS011;13517;59.320;18.042;2023-08-01T07:18:42;9.68;;;2.50;;
25657;SDS011;13517;59.320;18.042;2023-08-01T07:21:07;6.72;;;2.83;;
25657;SDS011;13517;59.320;18.042;2023-08-01T07:23:33;6.30;;;2.40;;
25657;SDS011;13517;59.320;18.042;2023-08-01T07:25:59;6.68;;;2.47;;
25657;SDS011;13517;59.320;18.042;2023-08-01T07:28:24;6.93;;;2.47;;
25657;SDS011;13517;59.320;18.042;2023-08-01T07:33:25;6.50;;;2.90;;
25657;SDS011;13517;59.320;18.042;2023-08-01T07:35:50;6.93;;;2.65;;
25657;SDS011;13517;59.320;18.042;2023-08-01T07:38:15;9.82;;;3.35;;
25657;SDS011;13517;59.320;18.042;2023-08-01T07:40:41;9.20;;;2.83;;
25657;SDS011;13517;59.320;18.042;2023-08-01T07:43:06;8.43;;;2.92;;
25657;SDS011;13517;59.320;18.042;2023-08-01T07:45:35;7.32;;;2.60;;
25657;SDS011;13517;59.320;18.042;2023-08-01T07:48:00;5.25;;;2.95;;
25657;SDS011;13517;59.320;18.042;2023-08-01T07:50:26;8.75;;;3.00;;
25657;SDS011;13517;59.320;18.042;2023-08-01T07:52:51;8.60;;;3.00;;
25657;SDS011;13517;59.320;18.042;2023-08-01T07:55:17;5.97;;;2.92;;
25657;SDS011;13517;59.320;18.042;2023-08-01T07:57:43;13.38;;;2.90;;
25657;SDS011;13517;59.320;18.042;2023-08-01T08:00:09;4.28;;;2.20;;
25657;SDS011;13517;59.320;18.042;2023-08-01T08:02:35;5.22;;;2.67;;
25657;SDS011;13517;59.320;18.042;2023-08-01T08:05:01;3.53;;;2.00;;
25657;SDS011;13517;59.320;18.042;2023-08-01T08:07:27;7.50;;;3.00;;
25657;SDS011;13517;59.320;18.042;2023-08-01T08:09:52;5.75;;;3.00;;
25657;SDS011;13517;59.320;18.042;2023-08-01T08:12:20;6.93;;;2.67;;
25657;SDS011;13517;59.320;18.042;2023-08-01T08:14:47;6.53;;;2.80;;
25657;SDS011;13517;59.320;18.042;2023-08-01T08:17:12;7.20;;;2.60;;
25657;SDS011;13517;59.320;18.042;2023-08-01T08:19:38;8.15;;;2.72;;
25657;SDS011;13517;59.320;18.042;2023-08-01T08:22:03;3.83;;;2.70;;
25657;SDS011;13517;59.320;18.042;2023-08-01T08:24:29;5.53;;;2.75;;
25657;SDS011;13517;59.320;18.042;2023-08-01T08:26:55;4.45;;;2.65;;
25657;SDS011;13517;59.320;18.042;2023-08-01T08:29:20;5.43;;;3.10;;
25657;SDS011;13517;59.320;18.042;2023-08-01T08:31:46;7.75;;;2.55;;
25657;SDS011;13517;59.320;18.042;2023-08-01T08:34:12;8.52;;;2.72;;
25657;SDS011;13517;59.320;18.042;2023-08-01T08:36:37;5.22;;;2.40;;
25657;SDS011;13517;59.320;18.042;2023-08-01T08:39:03;10.45;;;2.65;;
25657;SDS011;13517;59.320;18.042;2023-08-01T08:41:29;4.35;;;2.53;;
25657;SDS011;13517;59.320;18.042;2023-08-01T08:44:01;6.68;;;2.30;;
25657;SDS011;13517;59.320;18.042;2023-08-01T08:46:29;5.22;;;2.60;;
25657;SDS011;13517;59.320;18.042;2023-08-01T08:48:56;4.63;;;2.00;;
25657;SDS011;13517;59.320;18.042;2023-08-01T08:51:22;5.15;;;2.10;;
25657;SDS011;13517;59.320;18.042;2023-08-01T08:53:51;4.88;;;1.80;;
25657;SDS011;13517;59.320;18.042;2023-08-01T08:56:19;4.43;;;2.45;;
25657;SDS011;13517;59.320;18.042;2023-08-01T08:58:45;5.72;;;2.08;;
25657;SDS011;13517;59.320;18.042;2023-08-01T09:01:12;2.35;;;1.75;;
25657;SDS011;13517;59.320;18.042;2023-08-01T09:03:38;7.13;;;2.28;;
25657;SDS011;13517;59.320;18.042;2023-08-01T09:06:06;3.33;;;1.70;;
25657;SDS011;13517;59.320;18.042;2023-08-01T09:08:35;2.80;;;1.63;;
25657;SDS011;13517;59.320;18.042;2023-08-01T09:11:01;3.05;;;1.67;;
25657;SDS011;13517;59.320;18.042;2023-08-01T09:13:28;5.00;;;1.83;;
25657;SDS011;13517;59.320;18.042;2023-08-01T09:15:53;2.58;;;1.48;;
25657;SDS011;13517;59.320;18.042;2023-08-01T09:18:21;2.17;;;1.65;;
25657;SDS011;13517;59.320;18.042;2023-08-01T09:20:47;4.78;;;1.85;;
25657;SDS011;13517;59.320;18.042;2023-08-01T09:23:15;3.83;;;1.52;;
25657;SDS011;13517;59.320;18.042;2023-08-01T09:25:42;4.75;;;1.95;;
25657;SDS011;13517;59.320;18.042;2023-08-01T09:28:21;5.85;;;1.80;;
25657;SDS011;13517;59.320;18.042;2023-08-01T09:30:51;3.03;;;1.52;;
25657;SDS011;13517;59.320;18.042;2023-08-01T09:33:20;2.38;;;1.50;;
25657;SDS011;13517;59.320;18.042;2023-08-01T09:35:46;2.20;;;1.48;;
25657;SDS011;13517;59.320;18.042;2023-08-01T09:38:13;3.72;;;1.60;;
25657;SDS011;13517;59.320;18.042;2023-08-01T09:40:40;3.60;;;1.50;;
25657;SDS011;13517;59.320;18.042;2023-08-01T09:43:06;5.00;;;1.60;;
25657;SDS011;13517;59.320;18.042;2023-08-01T09:45:32;5.05;;;1.83;;
25657;SDS011;13517;59.320;18.042;2023-08-01T09:47:59;5.32;;;1.50;;
25657;SDS011;13517;59.320;18.042;2023-08-01T09:50:25;5.22;;;1.60;;
25657;SDS011;13517;59.320;18.042;2023-08-01T09:52:50;4.10;;;1.38;;
25657;SDS011;13517;59.320;18.042;2023-08-01T09:55:21;8.65;;;2.72;;
25657;SDS011;13517;59.320;18.042;2023-08-01T09:57:56;3.80;;;1.40;;
25657;SDS011;13517;59.320;18.042;2023-08-01T10:00:23;1.95;;;1.30;;
25657;SDS011;13517;59.320;18.042;2023-08-01T10:02:54;3.65;;;1.77;;
25657;SDS011;13517;59.320;18.042;2023-08-01T10:05:22;5.07;;;2.17;;
25657;SDS011;13517;59.320;18.042;2023-08-01T10:07:48;3.72;;;1.88;;
25657;SDS011;13517;59.320;18.042;2023-08-01T10:10:18;5.93;;;1.80;;
25657;SDS011;13517;59.320;18.042;2023-08-01T10:12:45;4.25;;;1.80;;
25657;SDS011;13517;59.320;18.042;2023-08-01T10:15:13;3.53;;;1.70;;
25657;SDS011;13517;59.320;18.042;2023-08-01T10:17:40;2.33;;;1.85;;
25657;SDS011;13517;59.320;18.042;2023-08-01T10:20:06;10.75;;;1.65;;
25657;SDS011;13517;59.320;18.042;2023-08-01T10:22:32;3.38;;;1.58;;
25657;SDS011;13517;59.320;18.042;2023-08-01T10:24:59;3.92;;;1.70;;
25657;SDS011;13517;59.320;18.042;2023-08-01T10:27:25;4.72;;;2.05;;
25657;SDS011;13517;59.320;18.042;2023-08-01T10:30:00;3.70;;;1.60;;
25657;SDS011;13517;59.320;18.042;2023-08-01T10:32:32;5.00;;;1.50;;
25657;SDS011;13517;59.320;18.042;2023-08-01T10:34:58;4.93;;;1.63;;
25657;SDS011;13517;59.320;18.042;2023-08-01T10:37:24;5.00;;;2.20;;
25657;SDS011;13517;59.320;18.042;2023-08-01T10:39:57;3.70;;;1.80;;
25657;SDS011;13517;59.320;18.042;2023-08-01T10:42:23;1.90;;;1.48;;
25657;SDS011;13517;59.320;18.042;2023-08-01T10:44:49;1.75;;;1.40;;
25657;SDS011;13517;59.320;18.042;2023-08-01T10:47:15;3.95;;;2.03;;
25657;SDS011;13517;59.320;18.042;2023-08-01T10:49:51;2.85;;;1.80;;
25657;SDS011;13517;59.320;18.042;2023-08-01T10:54:59;2.88;;;1.80;;
25657;SDS011;13517;59.320;18.042;2023-08-01T10:57:29;3.90;;;1.80;;
25657;SDS011;13517;59.320;18.042;2023-08-01T10:59:56;2.00;;;1.48;;
25657;SDS011;13517;59.320;18.042;2023-08-01T11:02:26;3.08;;;1.92;;
25657;SDS011;13517;59.320;18.042;2023-08-01T11:05:05;2.97;;;2.13;;
25657;SDS011;13517;59.320;18.042;2023-08-01T11:07:33;4.43;;;2.13;;
25657;SDS011;13517;59.320;18.042;2023-08-01T11:12:35;3.33;;;2.13;;
25657;SDS011;13517;59.320;18.042;2023-08-01T11:15:05;3.63;;;2.00;;
25657;SDS011;13517;59.320;18.042;2023-08-01T11:17:33;2.33;;;1.77;;
25657;SDS011;13517;59.320;18.042;2023-08-01T11:20:10;2.45;;;1.67;;
25657;SDS011;13517;59.320;18.042;2023-08-01T11:22:37;4.43;;;1.83;;
25657;SDS011;13517;59.320;18.042;2023-08-01T11:25:03;3.22;;;1.40;;
25657;SDS011;13517;59.320;18.042;2023-08-01T11:27:29;3.28;;;1.40;;
25657;SDS011;13517;59.320;18.042;2023-08-01T11:29:55;5.03;;;1.80;;
25657;SDS011;13517;59.320;18.042;2023-08-01T11:32:21;3.20;;;1.70;;
25657;SDS011;13517;59.320;18.042;2023-08-01T11:34:57;4.75;;;1.60;;
25657;SDS011;13517;59.320;18.042;2023-08-01T11:37:25;1.90;;;1.40;;
25657;SDS011;13517;59.320;18.042;2023-08-01T11:39:51;1.77;;;1.42;;
25657;SDS011;13517;59.320;18.042;2023-08-01T11:42:19;5.68;;;1.80;;
25657;SDS011;13517;59.320;18.042;2023-08-01T11:44:44;4.30;;;1.60;;
25657;SDS011;13517;59.320;18.042;2023-08-01T11:47:16;5.55;;;1.73;;
25657;SDS011;13517;59.320;18.042;2023-08-01T11:49:46;6.63;;;2.17;;
25657;SDS011;13517;59.320;18.042;2023-08-01T11:52:26;3.80;;;1.83;;
25657;SDS011;13517;59.320;18.042;2023-08-01T11:54:53;3.65;;;1.38;;
25657;SDS011;13517;59.320;18.042;2023-08-01T11:57:22;3.10;;;1.70;;
25657;SDS011;13517;59.320;18.042;2023-08-01T11:59:49;4.70;;;1.35;;
25657;SDS011;13517;59.320;18.042;2023-08-01T12:02:25;3.17;;;1.50;;
25657;SDS011;13517;59.320;18.042;2023-08-01T12:04:52;5.95;;;1.73;;
25657;SDS011;13517;59.320;18.042;2023-08-01T12:07:18;3.60;;;1.45;;
25657;SDS011;13517;59.320;18.042;2023-08-01T12:09:54;6.53;;;1.70;;
25657;SDS011;13517;59.320;18.042;2023-08-01T12:12:23;2.72;;;1.63;;
25657;SDS011;13517;59.320;18.042;2023-08-01T12:14:49;4.78;;;1.77;;
25657;SDS011;13517;59.320;18.042;2023-08-01T12:17:14;2.85;;;1.42;;
25657;SDS011;13517;59.320;18.042;2023-08-01T12:19:40;2.97;;;1.60;;
25657;SDS011;13517;59.320;18.042;2023-08-01T12:22:05;5.50;;;2.03;;
25657;SDS011;13517;59.320;18.042;2023-08-01T12:24:30;4.22;;;1.98;;
25657;SDS011;13517;59.320;18.042;2023-08-01T12:26:58;4.13;;;1.70;;
25657;SDS011;13517;59.320;18.042;2023-08-01T12:29:23;6.40;;;2.10;;
25657;SDS011;13517;59.320;18.042;2023-08-01T12:31:48;2.80;;;2.03;;
25657;SDS011;13517;59.320;18.042;2023-08-01T12:34:14;3.08;;;1.92;;
25657;SDS011;13517;59.320;18.042;2023-08-01T12:36:39;5.18;;;1.80;;
25657;SDS011;13517;59.320;18.042;2023-08-01T12:39:05;5.97;;;1.60;;
25657;SDS011;13517;59.320;18.042;2023-08-01T12:41:35;2.95;;;1.60;;
25657;SDS011;13517;59.320;18.042;2023-08-01T12:44:01;3.72;;;2.13;;
25657;SDS011;13517;59.320;18.042;2023-08-01T12:46:26;3.85;;;2.15;;
25657;SDS011;13517;59.320;18.042;2023-08-01T12:48:51;2.70;;;1.88;;
25657;SDS011;13517;59.320;18.042;2023-08-01T12:51:17;5.93;;;2.28;;
25657;SDS011;13517;59.320;18.042;2023-08-01T12:53:42;2.90;;;1.63;;
25657;SDS011;13517;59.320;18.042;2023-08-01T12:56:08;6.05;;;2.17;;
25657;SDS011;13517;59.320;18.042;2023-08-01T12:58:33;3.63;;;1.83;;
25657;SDS011;13517;59.320;18.042;2023-08-01T13:00:58;5.82;;;2.20;;
25657;SDS011;13517;59.320;18.042;2023-08-01T13:03:24;10.43;;;1.98;;
25657;SDS011;13517;59.320;18.042;2023-08-01T13:05:49;6.03;;;4.25;;
25657;SDS011;13517;59.320;18.042;2023-08-01T13:08:15;3.92;;;1.92;;
25657;SDS011;13517;59.320;18.042;2023-08-01T13:10:41;3.53;;;2.00;;
25657;SDS011;13517;59.320;18.042;2023-08-01T13:13:06;3.33;;;2.63;;
25657;SDS011;13517;59.320;18.042;2023-08-01T13:15:32;2.40;;;1.80;;
25657;SDS011;13517;59.320;18.042;2023-08-01T13:17:57;4.65;;;2.03;;
25657;SDS011;13517;59.320;18.042;2023-08-01T13:20:23;2.78;;;1.40;;
25657;SDS011;13517;59.320;18.042;2023-08-01T13:22:49;4.18;;;2.20;;
25657;SDS011;13517;59.320;18.042;2023-08-01T13:25:16;2.72;;;2.00;;
25657;SDS011;13517;59.320;18.042;2023-08-01T13:27:42;5.30;;;1.90;;
25657;SDS011;13517;59.320;18.042;2023-08-01T13:30:08;2.45;;;2.10;;
25657;SDS011;13517;59.320;18.042;2023-08-01T13:32:34;3.55;;;1.77;;
25657;SDS011;13517;59.320;18.042;2023-08-01T13:35:00;5.18;;;2.30;;
25657;SDS011;13517;59.320;18.042;2023-08-01T13:37:26;4.85;;;1.77;;
25657;SDS011;13517;59.320;18.042;2023-08-01T13:39:53;3.45;;;1.60;;
25657;SDS011;13517;59.320;18.042;2023-08-01T13:42:18;3.25;;;1.48;;
25657;SDS011;13517;59.320;18.042;2023-08-01T13:44:43;5.88;;;1.65;;
25657;SDS011;13517;59.320;18.042;2023-08-01T13:47:09;2.67;;;1.60;;
25657;SDS011;13517;59.320;18.042;2023-08-01T13:49:35;2.65;;;1.65;;
25657;SDS011;13517;59.320;18.042;2023-08-01T13:52:00;2.78;;;1.50;;
25657;SDS011;13517;59.320;18.042;2023-08-01T13:54:26;2.47;;;1.23;;
25657;SDS011;13517;59.320;18.042;2023-08-01T13:56:52;2.70;;;1.50;;
25657;SDS011;13517;59.320;18.042;2023-08-01T13:59:18;4.95;;;1.58;;
25657;SDS011;13517;59.320;18.042;2023-08-01T14:01:44;2.13;;;1.45;;
25657;SDS011;13517;59.320;18.042;2023-08-01T14:04:10;3.22;;;1.70;;
25657;SDS011;13517;59.320;18.042;2023-08-01T14:06:39;2.97;;;1.83;;
25657;SDS011;13517;59.320;18.042;2023-08-01T14:09:05;4.38;;;1.52;;
25657;SDS011;13517;59.320;18.042;2023-08-01T14:11:30;4.38;;;2.15;;
25657;SDS011;13517;59.320;18.042;2023-08-01T14:13:55;2.90;;;1.50;;
25657;SDS011;13517;59.320;18.042;2023-08-01T14:16:22;3.58;;;1.60;;
25657;SDS011;13517;59.320;18.042;2023-08-01T14:18:47;5.15;;;2.05;;
25657;SDS011;13517;59.320;18.042;2023-08-01T14:21:13;5.25;;;1.83;;
25657;SDS011;13517;59.320;18.042;2023-08-01T14:23:38;2.47;;;1.35;;
25657;SDS011;13517;59.320;18.042;2023-08-01T14:26:05;2.70;;;1.60;;
25657;SDS011;13517;59.320;18.042;2023-08-01T14:28:31;1.98;;;1.45;;
25657;SDS011;13517;59.320;18.042;2023-08-01T14:30:59;4.88;;;1.80;;
25657;SDS011;13517;59.320;18.042;2023-08-01T14:33:25;2.83;;;1.50;;